CA-0487 weather

CLOSED Long Branch Aerodrome
Mississauga, Ontario, Canada

Public forecast

Using degrees Celsius for public forecast. Weather courtesy of forecast.io.

METAR (pilot weather report)

Closest report is Lester B. Pearson International Airport, 7.1 nm (13.1 km) NNW. Retrieved 2019/05/20 02:00 UTC (1 hour ago):

CYYZ 200200Z 16013KT 15SM FEW020 BKN130 16/15 A2971 RMK CF1AC5 CF TR SLP061 DENSITY ALT 1200FT

TAF (pilot weather forecast)

Closest forecast is Lester B. Pearson International Airport, 7.1 nm (13.1 km) NNW. Retrieved 2019/05/19 21:45 UTC (5 hours ago):

TAF CYYZ 192040Z 1921/2024 15010G20KT P6SM FEW060 SCT110 TEMPO 1921/1923 P6SM VCTS SCT060CB FM192300 15010G20KT P6SM -SHRA BKN060 TEMPO 1923/1924 5SM -SHRA BR PROB30 1923/1924 VRB20G30KT 11/2SM +TSRA BR BKN020 OVC050CB FM200000 27015G25KT P6SM -SHRA BKN060 TEMPO 2000/2004 5SM -SHRA BR PROB30 2000/2004 VRB20G30KT 11/2SM +TSRA BR BKN020 OVC050CB FM200400 22015G25KT P6SM SCT020 BKN040 TEMPO 2004/2009 P6SM -SHRA FM200900 25012KT P6SM BKN020 BECMG 2011/2013 25015G28KT FM201500 26018G28KT P6SM BKN025 BECMG 2022/2024 29018KT RMK NXT FCST BY 200000Z